KRHI

Rhinelander-Oneida County Airport

Rhinelander, Wisconsin, USA
METAR KRHI 212253Z AUTO 11008KT 10SM SCT045 24/16 A2993 RMK AO2 SLP130 T02440156
Observed Flight Rules
Jun-21 @ 22:53 UTC (an hour ago) Visual Flight Rules
Wind Visibility Clouds
110° at 8 knots 10 miles
  • Scattered at 4,500' AGL
Temperatures Readings
Current 24°C / 75°F
Dewpoint 16°C / 61°F
Humidity 61%
Altimeter 29.93" Hg
Pressure 1013 hPa
Elevation 485
METAR KRHI 212253Z AUTO 11008KT 10SM SCT045 24/16 A2993 RMK AO2 SLP130 T02440156
Observed Flight Rules
Jun-21 @ 22:53 UTC
(an hour ago)
VFR
Wind Visibility
110° at 8 knots 10 miles
Clouds
  • Scattered at 4,500' AGL
Temperature Dewpoint
24°C / 75°F 16°C / 61°F
Humidity Altimeter Pressure
61% 29.93" Hg 1013 hPa